createdAt,value
2022-09-05T00:02:48.926Z,5.90
2022-09-05T00:10:03.228Z,5.88
2022-09-05T00:24:30.064Z,5.30
2022-09-05T00:31:54.402Z,5.55
2022-09-05T00:38:55.879Z,5.50
2022-09-05T00:45:47.610Z,5.70
2022-09-05T00:52:39.972Z,5.50
2022-09-05T01:00:16.398Z,5.60
2022-09-05T01:07:21.928Z,5.20
2022-09-05T01:14:27.820Z,5.32
2022-09-05T01:21:49.499Z,5.70
2022-09-05T01:29:15.153Z,5.32
2022-09-05T01:36:16.801Z,5.30
2022-09-05T01:43:14.023Z,5.40
2022-09-05T01:50:17.952Z,5.70
2022-09-05T01:57:18.274Z,5.78
2022-09-05T02:05:00.253Z,6.45
2022-09-05T02:12:00.242Z,6.15
2022-09-05T02:18:57.454Z,6.00
2022-09-05T02:26:02.345Z,5.30
2022-09-05T02:33:11.628Z,5.53
2022-09-05T02:45:04.158Z,5.88
2022-09-05T03:01:12.046Z,6.22
2022-09-05T03:08:17.060Z,6.30
2022-09-05T03:16:09.244Z,6.35
2022-09-05T03:23:35.534Z,6.50
2022-09-05T03:30:23.645Z,6.45
2022-09-05T03:37:44.824Z,6.70
2022-09-05T03:45:14.157Z,6.97
2022-09-05T03:57:08.774Z,7.45
2022-09-05T04:00:10.840Z,6.85
2022-09-05T04:08:20.644Z,6.90
2022-09-05T04:14:12.571Z,7.20
2022-09-05T04:21:07.309Z,7.20
2022-09-05T04:27:58.584Z,7.32
2022-09-05T04:35:11.757Z,7.22
2022-09-05T04:42:17.208Z,6.95
2022-09-05T04:49:10.947Z,7.80
2022-09-05T04:55:58.212Z,6.97
2022-09-05T05:06:03.005Z,7.13
2022-09-05T05:11:04.524Z,7.28
2022-09-05T05:18:14.830Z,7.82
2022-09-05T05:24:24.848Z,8.02
2022-09-05T05:31:18.537Z,7.38
2022-09-05T05:38:25.419Z,7.45
2022-09-05T05:45:21.811Z,7.65
2022-09-05T05:59:56.701Z,8.07
2022-09-05T06:07:10.035Z,7.90
2022-09-05T06:15:08.860Z,8.40
2022-09-05T06:22:33.379Z,8.23
2022-09-05T06:29:38.059Z,8.70
2022-09-05T06:36:43.980Z,8.98
2022-09-05T06:43:58.573Z,8.80
2022-09-05T06:51:30.303Z,8.75
2022-09-05T06:58:56.280Z,9.20
2022-09-05T07:05:55.703Z,9.43
2022-09-05T07:12:51.126Z,9.00
2022-09-05T07:19:44.583Z,9.20
2022-09-05T07:26:51.573Z,8.52
2022-09-05T07:33:42.851Z,8.35
2022-09-05T07:40:30.527Z,7.55
2022-09-05T07:47:26.957Z,7.97
2022-09-05T07:57:14.611Z,7.53
2022-09-05T08:01:26.211Z,8.07
2022-09-05T08:08:22.927Z,8.07
2022-09-05T08:15:14.075Z,7.63
2022-09-05T08:22:04.841Z,7.90
2022-09-05T08:29:02.061Z,7.40
2022-09-05T08:35:57.699Z,6.57
2022-09-05T08:44:39.427Z,6.10
2022-09-05T08:50:32.497Z,5.63
2022-09-05T08:57:26.212Z,5.78
2022-09-05T09:04:48.927Z,5.00
2022-09-05T09:11:40.195Z,5.93
2022-09-05T09:18:41.044Z,5.70
2022-09-05T09:25:33.980Z,5.00
2022-09-05T09:32:26.017Z,5.15
2022-09-05T09:39:37.541Z,5.10
2022-09-05T09:46:39.471Z,5.38
2022-09-05T09:53:52.899Z,5.07
2022-09-05T10:00:51.324Z,4.68
2022-09-05T10:10:52.853Z,4.80
2022-09-05T10:15:32.750Z,4.75
2022-09-05T10:22:56.365Z,5.30
2022-09-05T10:29:59.096Z,4.28
2022-09-05T10:36:55.032Z,4.10
2022-09-05T10:43:51.989Z,4.30
2022-09-05T10:50:47.406Z,4.03
2022-09-05T10:57:46.212Z,3.97
2022-09-05T11:04:49.835Z,5.32
2022-09-05T11:11:46.888Z,4.40
2022-09-05T11:18:58.663Z,3.92
2022-09-05T11:25:47.830Z,4.43
2022-09-05T11:39:12.140Z,4.40
2022-09-05T11:40:53.532Z,4.82
2022-09-05T11:48:20.354Z,4.38
2022-09-05T11:55:43.203Z,3.67
2022-09-05T12:02:49.596Z,3.65
2022-09-05T12:10:45.913Z,3.53
2022-09-05T12:17:35.443Z,4.60
2022-09-05T12:25:25.774Z,3.95
2022-09-05T12:33:09.752Z,4.05
2022-09-05T12:41:34.651Z,4.32
2022-09-05T12:46:24.023Z,3.85
2022-09-05T12:53:13.774Z,4.43
2022-09-05T13:03:09.050Z,3.95
2022-09-05T13:07:17.119Z,4.30
2022-09-05T13:14:52.605Z,4.32
2022-09-05T13:21:23.586Z,4.28
2022-09-05T13:28:14.695Z,3.97
2022-09-05T13:38:14.611Z,3.95
2022-09-05T13:42:21.519Z,4.70
2022-09-05T13:49:29.600Z,3.70
2022-09-05T13:56:25.075Z,3.80
2022-09-05T14:03:50.623Z,3.40
2022-09-05T14:11:20.354Z,3.58
2022-09-05T14:18:21.637Z,3.80
2022-09-05T14:25:19.592Z,3.75
2022-09-05T14:37:39.150Z,3.45
2022-09-05T14:40:35.925Z,3.50
2022-09-05T14:48:03.876Z,3.67
2022-09-05T15:02:49.441Z,3.67
2022-09-05T15:12:16.708Z,3.85
2022-09-05T15:16:28.956Z,3.50
2022-09-05T15:23:35.673Z,3.50
2022-09-05T15:30:31.877Z,3.95
2022-09-05T15:37:29.476Z,3.80
2022-09-05T15:44:24.312Z,4.38
2022-09-05T15:51:20.922Z,4.03
2022-09-05T15:58:10.871Z,3.88
2022-09-05T16:10:27.442Z,4.47
2022-09-05T16:12:34.160Z,3.75
2022-09-05T16:23:27.398Z,3.72
2022-09-05T16:26:41.364Z,3.35
2022-09-05T16:33:29.757Z,3.67
2022-09-05T16:40:24.215Z,3.90
2022-09-05T16:54:24.540Z,3.55
2022-09-05T17:01:45.289Z,3.60
2022-09-05T17:08:34.401Z,3.50
2022-09-05T17:15:23.281Z,4.63
2022-09-05T17:28:41.754Z,3.50
2022-09-05T17:37:42.388Z,3.53
2022-09-05T17:44:34.576Z,3.60
2022-09-05T17:52:09.462Z,3.47
2022-09-05T17:59:10.064Z,3.90
2022-09-05T18:06:05.513Z,3.78
2022-09-05T18:13:13.902Z,4.10
2022-09-05T18:20:12.329Z,4.32
2022-09-05T18:27:28.126Z,5.18
2022-09-05T18:34:47.812Z,5.10
2022-09-05T18:41:40.815Z,4.88
2022-09-05T18:48:35.627Z,5.40
2022-09-05T18:56:13.750Z,5.05
2022-09-05T19:02:51.502Z,5.13
2022-09-05T19:10:36.254Z,5.22
2022-09-05T19:17:22.846Z,4.55
2022-09-05T19:24:16.200Z,4.90
2022-09-05T19:37:09.604Z,4.82
2022-09-05T19:38:16.312Z,5.68
2022-09-05T19:47:56.288Z,4.30
2022-09-05T19:52:19.928Z,4.18
2022-09-05T19:59:20.252Z,4.85
2022-09-05T20:06:29.243Z,4.85
2022-09-05T20:13:27.943Z,5.60
2022-09-05T20:20:22.535Z,4.90
2022-09-05T20:27:08.522Z,4.50
2022-09-05T20:33:57.933Z,4.80
2022-09-05T20:43:24.004Z,4.82
2022-09-05T20:54:13.919Z,4.72
2022-09-05T20:55:37.831Z,4.53
2022-09-05T21:02:12.185Z,4.20
2022-09-05T21:09:14.839Z,4.55
2022-09-05T21:16:02.689Z,4.60
2022-09-05T21:22:51.617Z,5.03
2022-09-05T21:29:39.522Z,5.22
2022-09-05T21:36:27.116Z,4.60
2022-09-05T21:47:38.636Z,4.82
2022-09-05T21:50:31.599Z,4.45
2022-09-05T21:59:24.053Z,5.00
2022-09-05T22:04:37.164Z,4.45
2022-09-05T22:11:28.033Z,4.95
2022-09-05T22:18:17.740Z,4.90
2022-09-05T22:25:12.975Z,4.63
2022-09-05T22:31:59.074Z,5.30
2022-09-05T22:38:45.512Z,4.60
2022-09-05T22:45:36.814Z,5.00
2022-09-05T22:52:22.296Z,5.85
2022-09-05T23:05:57.820Z,5.50
2022-09-05T23:12:43.351Z,6.15
2022-09-05T23:26:20.396Z,5.95
2022-09-05T23:33:08.853Z,5.40
2022-09-05T23:39:54.522Z,5.25
2022-09-05T23:46:42.898Z,5.70
2022-09-05T23:53:28.879Z,5.45
